Time;durP1;ratioP1;P1;durP2;ratioP2;P2;SDS_P1;SDS_P2;PMS_P1;PMS_P2;Temp;Humidity;BMP_temperature;BMP_pressure;BME280_temperature;BME280_humidity;BME280_pressure;Samples;Min_cycle;Max_cycle;Signal;HPM_P1;HPM_P2
2021/01/29 05:07:52;;;;;;;14.40;10.48;;;128.90;2252.80;;;;;;5247052;24;20050;-79
2021/01/29 05:10:21;;;;;;;17.05;12.20;;;153.60;2227.20;;;;;;4836576;29;20045;-79
2021/01/29 05:13:25;;;;;;;13.57;10.60;;;153.60;2252.80;;;;;;4826357;29;20038;-80
2021/01/29 05:16:23;;;;;;;16.20;11.27;;;153.60;2252.80;;;;;;4809305;30;20039;-80
2021/01/29 05:19:31;;;;;;;17.63;11.15;;;153.60;2252.80;;;;;;4800954;30;20032;-79
2021/01/29 05:22:47;;;;;;;15.07;10.38;;;153.60;2252.80;;;;;;4768770;30;20043;-79
2021/01/29 05:25:16;;;;;;;16.27;11.63;;;153.60;2252.80;;;;;;4747037;30;20048;-78
2021/01/29 05:28:20;;;;;;;21.00;12.73;;;153.60;2252.80;;;;;;4739383;30;20048;-78
2021/01/29 05:30:48;;;;;;;20.35;13.57;;;153.60;2252.80;;;;;;4733969;30;20044;-78
2021/01/29 05:34:08;;;;;;;22.13;12.82;;;153.70;2252.80;;;;;;4754726;30;20029;-79
2021/01/29 05:37:16;;;;;;;;;;;153.70;2252.80;;;;;;4653160;30;20083;-80
2021/01/29 05:45:38;;;;;;;23.33;14.63;;;153.70;2252.80;;;;;;4104150;27;20294;-79
2021/01/29 05:48:35;;;;;;;24.55;17.50;;;153.70;2252.80;;;;;;4845504;29;20046;-78
2021/01/29 05:51:27;;;;;;;27.90;15.02;;;153.70;2252.80;;;;;;4818518;29;20061;-78
2021/01/29 05:54:30;;;;;;;21.10;13.48;;;153.70;2252.80;;;;;;4814506;29;20037;-77
2021/01/29 06:01:06;;;;;;;26.52;15.73;;;153.70;2252.80;;;;;;4810766;29;20046;-81
2021/01/29 06:04:00;;;;;;;30.20;16.25;;;153.70;2252.80;;;;;;4769183;30;20040;-78
2021/01/29 06:06:34;;;;;;;29.35;16.30;;;153.70;2252.80;;;;;;4786335;30;20047;-77
2021/01/29 06:09:30;;;;;;;45.30;21.52;;;153.70;2252.80;;;;;;4789582;30;20047;-78
2021/01/29 06:12:25;;;;;;;52.55;33.72;;;153.70;2252.80;;;;;;4788354;30;20086;-77
2021/01/29 06:15:20;;;;;;;46.05;27.42;;;153.70;2252.80;;;;;;4770595;30;20047;-78
2021/01/29 06:18:42;;;;;;;33.53;21.85;;;153.70;2252.80;;;;;;4787023;30;20047;-79
2021/01/29 06:21:49;;;;;;;30.80;21.35;;;153.70;2252.80;;;;;;4715371;30;20053;-79
2021/01/29 06:24:43;;;;;;;33.47;21.75;;;153.70;2252.80;;;;;;4702190;30;20124;-78
2021/01/29 06:27:20;;;;;;;34.20;25.23;;;153.70;2252.80;;;;;;4691339;30;20183;-78
2021/01/29 06:29:53;;;;;;;35.15;24.35;;;153.60;2252.80;;;;;;4687310;30;20038;-78
2021/01/29 06:32:40;;;;;;;63.97;43.35;;;153.70;2252.80;;;;;;4688287;30;20084;-78
2021/01/29 06:35:12;;;;;;;;;;;153.60;2252.80;;;;;;4684747;30;20049;-78
2021/01/29 06:38:18;;;;;;;39.55;27.20;;;153.70;2252.80;;;;;;4683740;30;19919;-78
2021/01/29 06:41:40;;;;;;;40.60;32.90;;;153.60;2252.80;;;;;;4696822;30;20081;-79
2021/01/29 06:45:08;;;;;;;43.80;29.85;;;153.60;2252.80;;;;;;4662393;30;20062;-78
2021/01/29 06:47:53;;;;;;;38.00;26.80;;;153.60;2252.80;;;;;;4657634;30;20043;-78
2021/01/29 06:51:11;;;;;;;45.55;27.70;;;153.60;2252.80;;;;;;4659927;30;20407;-78
2021/01/29 06:54:37;;;;;;;36.55;24.10;;;153.60;2252.80;;;;;;4634175;31;20058;-79
2021/01/29 06:59:43;;;;;;;29.23;20.47;;;153.60;2252.80;;;;;;5057883;24;20058;-79
2021/01/29 07:02:27;;;;;;;27.42;20.92;;;153.60;2252.80;;;;;;4828253;29;20266;-78
2021/01/29 07:05:07;;;;;;;26.63;19.33;;;153.70;2252.80;;;;;;4808230;29;20030;-78
2021/01/29 07:07:44;;;;;;;27.77;18.02;;;153.70;2252.80;;;;;;4808324;29;20027;-78
2021/01/29 07:10:18;;;;;;;24.90;18.23;;;153.70;2252.80;;;;;;4824465;29;20084;-78
2021/01/29 07:13:05;;;;;;;26.08;18.98;;;153.90;2252.80;;;;;;4824641;29;20031;-78
2021/01/29 07:16:08;;;;;;;27.20;19.15;;;153.90;2252.80;;;;;;4820572;29;20030;-78
2021/01/29 07:19:12;;;;;;;27.08;20.02;;;154.10;2252.80;;;;;;4805689;29;20031;-78
2021/01/29 07:21:44;;;;;;;27.65;19.13;;;154.10;2252.80;;;;;;4772306;30;20039;-79
2021/01/29 07:24:28;;;;;;;27.95;19.85;;;154.10;2227.20;;;;;;4762105;30;20071;-78
2021/01/29 07:27:12;;;;;;;28.33;19.85;;;154.20;2227.20;;;;;;4759758;30;20407;-78
2021/01/29 07:30:09;;;;;;;28.05;18.73;;;154.30;2227.20;;;;;;4760708;30;20485;-79
2021/01/29 07:46:32;;;;;;;28.43;17.97;;;154.40;2227.20;;;;;;4918182;24;20030;-78
2021/01/29 07:49:29;;;;;;;22.40;14.93;;;154.50;2201.60;;;;;;4829712;29;20059;-79
2021/01/29 07:52:32;;;;;;;20.05;11.55;;;179.20;2201.60;;;;;;4826845;29;20063;-79
2021/01/29 07:55:01;;;;;;;16.63;10.73;;;179.20;2150.40;;;;;;4811078;29;20035;-78
2021/01/29 07:57:45;;;;;;;16.17;10.65;;;179.30;2176.00;;;;;;4824595;29;20053;-78
2021/01/29 08:00:24;;;;;;;15.63;9.38;;;179.40;2150.40;;;;;;4818599;29;20064;-78
2021/01/29 08:03:11;;;;;;;16.55;11.82;;;179.50;2150.40;;;;;;4803451;29;20030;-78
2021/01/29 08:05:55;;;;;;;14.60;10.63;;;179.70;2150.40;;;;;;4818843;29;20038;-78
2021/01/29 08:08:26;;;;;;;19.98;11.20;;;179.80;2124.80;;;;;;4811654;29;20094;-77
2021/01/29 08:10:55;;;;;;;19.83;12.98;;;180.00;2124.80;;;;;;4809908;29;20118;-77
2021/01/29 08:13:26;;;;;;;17.58;11.35;;;204.80;2099.20;;;;;;4812438;29;20064;-78
2021/01/29 08:16:37;;;;;;;18.42;11.23;;;204.80;2073.60;;;;;;4812969;29;20086;-78
2021/01/29 08:19:31;;;;;;;16.30;10.85;;;204.90;2099.20;;;;;;4755421;30;20045;-78
2021/01/29 08:22:03;;;;;;;23.15;13.15;;;204.90;2099.20;;;;;;4769263;30;20024;-79
2021/01/29 08:24:57;;;;;;;24.40;13.70;;;205.00;2073.60;;;;;;4741508;30;20425;-77
2021/01/29 08:27:35;;;;;;;20.98;13.35;;;205.10;2073.60;;;;;;4756570;30;20036;-78
2021/01/29 08:30:20;;;;;;;19.02;12.55;;;205.20;2048.00;;;;;;4743218;30;20044;-77
2021/01/29 08:33:13;;;;;;;19.02;11.98;;;205.30;2048.00;;;;;;4753712;30;20043;-77
2021/01/29 08:36:17;;;;;;;15.68;10.65;;;205.40;2048.00;;;;;;4757826;30;20037;-78
2021/01/29 08:39:30;;;;;;;15.23;8.38;;;205.60;2022.40;;;;;;4757201;30;20059;-79
2021/01/29 08:42:46;;;;;;;14.30;9.40;;;205.60;1996.80;;;;;;4776087;30;20048;-80
2021/01/29 09:05:10;;;;;;;20.08;13.20;;;230.80;1945.60;;;;;;5647113;24;20065;-78
2021/01/29 09:07:39;;;;;;;22.02;14.52;;;230.80;1920.00;;;;;;4872643;29;20093;-78
2021/01/29 09:10:43;;;;;;;24.77;16.05;;;230.90;1945.60;;;;;;4834091;29;20037;-77
2021/01/29 10:45:59;;;;;;;14.65;9.63;;;307.70;1740.80;;;;;;4821380;29;20046;-86
2021/01/29 10:48:57;;;;;;;19.70;11.95;;;307.90;1689.60;;;;;;4804687;29;20045;-85
2021/01/29 10:51:45;;;;;;;21.73;13.60;;;307.70;1689.60;;;;;;4793274;29;20066;-87
2021/01/29 10:54:12;;;;;;;35.97;20.27;;;307.70;1689.60;;;;;;4804572;29;20399;-86
2021/01/29 10:56:50;;;;;;;7.97;6.13;;;307.80;1689.60;;;;;;4805365;29;20062;-87
2021/01/29 10:59:53;;;;;;;12.85;8.80;;;308.10;1638.40;;;;;;4806886;29;20074;-83
2021/01/29 11:02:38;;;;;;;13.25;9.23;;;332.80;1638.40;;;;;;4809734;29;20062;-88
2021/01/29 11:05:10;;;;;;;11.98;8.50;;;333.40;1587.20;;;;;;4810521;29;20043;-86
2021/01/29 11:07:42;;;;;;;15.57;8.93;;;358.40;1561.60;;;;;;4810408;29;20120;-87
2021/01/29 11:10:14;;;;;;;13.98;9.20;;;384.00;1459.20;;;;;;4819151;29;20382;-85
2021/01/29 11:12:41;;;;;;;12.20;8.05;;;409.60;1433.60;;;;;;4826708;29;20103;-85
2021/01/29 11:15:35;;;;;;;12.65;9.52;;;410.50;1331.20;;;;;;4809168;29;20046;-84
2021/01/29 11:18:19;;;;;;;12.07;8.43;;;435.70;1228.80;;;;;;4810086;29;20039;-84
2021/01/29 11:20:47;;;;;;;18.58;11.93;;;435.30;1228.80;;;;;;4814202;29;20043;-84
2021/01/29 11:23:30;;;;;;;13.50;9.32;;;435.90;1280.00;;;;;;4809450;29;20582;-84
2021/01/29 11:25:58;;;;;;;17.02;11.40;;;435.70;1305.60;;;;;;4826164;29;20395;-85
2021/01/29 11:28:29;;;;;;;18.33;13.25;;;435.40;1331.20;;;;;;4810468;29;20490;-85
2021/01/29 11:31:17;;;;;;;16.15;11.63;;;435.20;1382.40;;;;;;4809649;29;20045;-85
2021/01/29 11:33:46;;;;;;;20.05;14.88;;;410.10;1433.60;;;;;;4807629;29;20084;-87
2021/01/29 11:36:37;;;;;;;12.07;8.65;;;384.90;1459.20;;;;;;4807558;29;20127;-85
2021/01/29 11:39:18;;;;;;;17.88;11.82;;;384.50;1433.60;;;;;;4807978;29;20068;-86
2021/01/29 11:42:06;;;;;;;18.10;11.15;;;384.20;1484.80;;;;;;4809006;29;20038;-87
2021/01/29 11:44:46;;;;;;;9.40;7.60;;;384.40;1484.80;;;;;;4809837;29;20050;-85
2021/01/29 11:47:41;;;;;;;11.73;8.40;;;384.20;1433.60;;;;;;4809981;29;20111;-86
2021/01/29 11:50:18;;;;;;;11.40;8.90;;;359.10;1459.20;;;;;;4826122;29;20110;-87
2021/01/29 11:52:59;;;;;;;13.73;10.38;;;359.10;1459.20;;;;;;4809703;29;20482;-85
2021/01/29 11:55:46;;;;;;;12.60;9.45;;;359.20;1484.80;;;;;;4809916;29;20035;-88
2021/01/29 11:58:20;;;;;;;27.17;13.82;;;359.00;1484.80;;;;;;4810218;29;20143;-88
2021/01/29 12:01:05;;;;;;;13.85;8.27;;;359.00;1484.80;;;;;;4810041;29;20125;-85
2021/01/29 12:03:48;;;;;;;14.00;9.30;;;358.80;1510.40;;;;;;4824578;29;20034;-80
2021/01/29 12:06:23;;;;;;;17.63;11.50;;;358.70;1510.40;;;;;;4825770;29;20158;-86
2021/01/29 12:09:01;;;;;;;11.80;8.65;;;358.70;1510.40;;;;;;4808469;29;20137;-85
2021/01/29 12:11:51;;;;;;;13.57;10.13;;;358.70;1536.00;;;;;;4809478;29;20112;-82
2021/01/29 12:14:29;;;;;;;13.20;9.55;;;358.60;1536.00;;;;;;4808833;29;20485;-83
2021/01/29 12:17:04;;;;;;;13.23;8.88;;;358.60;1536.00;;;;;;4824712;29;20026;-85
2021/01/29 12:19:43;;;;;;;11.38;8.80;;;358.60;1484.80;;;;;;4825231;29;20027;-84
2021/01/29 12:22:11;;;;;;;12.93;7.57;;;358.40;1510.40;;;;;;4809066;29;20027;-82
2021/01/29 12:24:56;;;;;;;10.40;6.97;;;333.60;1510.40;;;;;;4808755;29;20030;-84
2021/01/29 12:27:37;;;;;;;9.45;6.65;;;333.40;1484.80;;;;;;4807795;29;20050;-79
2021/01/29 12:30:12;;;;;;;11.10;7.72;;;333.20;1484.80;;;;;;4805992;29;20034;-82
2021/01/29 12:33:06;;;;;;;13.75;7.90;;;333.40;1536.00;;;;;;4805375;29;20042;-83
2021/01/29 12:35:44;;;;;;;10.75;7.60;;;333.30;1510.40;;;;;;4806685;29;20500;-82
2021/01/29 12:38:22;;;;;;;21.73;14.50;;;333.20;1536.00;;;;;;4803503;29;20054;-84
2021/01/29 12:41:07;;;;;;;17.15;11.98;;;333.50;1536.00;;;;;;4817927;29;20085;-83
2021/01/29 12:44:05;;;;;;;16.70;11.02;;;333.70;1510.40;;;;;;4790476;29;20084;-83
2021/01/29 12:46:37;;;;;;;15.02;9.65;;;333.60;1484.80;;;;;;4808039;29;20045;-84
2021/01/29 12:49:40;;;;;;;12.70;8.70;;;333.50;1484.80;;;;;;4804275;29;20831;-83
2021/01/29 12:52:27;;;;;;;27.15;12.00;;;333.20;1510.40;;;;;;4802546;29;20042;-84
2021/01/29 12:55:14;;;;;;;19.40;10.13;;;332.90;1587.20;;;;;;4808609;29;20498;-84
2021/01/29 12:57:40;;;;;;;24.83;13.15;;;332.80;1587.20;;;;;;4824523;29;20034;-84
2021/01/29 13:00:28;;;;;;;29.80;14.52;;;308.10;1587.20;;;;;;4824597;29;20058;-85
2021/01/29 13:03:25;;;;;;;18.45;11.15;;;332.80;1612.80;;;;;;4808474;29;20057;-84
2021/01/29 13:06:05;;;;;;;11.75;8.10;;;332.80;1587.20;;;;;;4822584;29;20030;-84
2021/01/29 13:09:06;;;;;;;16.92;10.65;;;307.90;1587.20;;;;;;4822259;29;20034;-84
2021/01/29 13:11:48;;;;;;;13.07;8.75;;;308.10;1587.20;;;;;;4793689;29;20038;-86
2021/01/29 13:14:23;;;;;;;19.90;11.77;;;332.80;1612.80;;;;;;4819974;29;20042;-84
2021/01/29 13:17:25;;;;;;;19.05;11.88;;;332.90;1612.80;;;;;;4806418;29;20487;-85
2021/01/29 13:20:29;;;;;;;16.42;10.55;;;333.00;1612.80;;;;;;4807224;29;20034;-85
2021/01/29 13:23:19;;;;;;;16.60;11.85;;;332.90;1638.40;;;;;;4784567;29;20055;-84
2021/01/29 13:26:03;;;;;;;15.52;9.90;;;332.90;1664.00;;;;;;4730618;30;20085;-83
2021/01/29 13:28:32;;;;;;;16.38;9.90;;;332.80;1612.80;;;;;;4716662;30;20033;-84
2021/01/29 13:31:23;;;;;;;19.52;12.30;;;332.80;1638.40;;;;;;4731854;30;20146;-84
2021/01/29 13:33:54;;;;;;;17.33;12.40;;;332.80;1638.40;;;;;;4733833;30;20076;-85
2021/01/29 13:36:27;;;;;;;25.00;14.18;;;332.80;1638.40;;;;;;4733502;30;20066;-84
2021/01/29 13:39:05;;;;;;;30.77;17.42;;;332.80;1638.40;;;;;;4732056;30;20056;-84
2021/01/29 13:41:43;;;;;;;26.77;15.05;;;332.90;1612.80;;;;;;4731858;30;20119;-84
2021/01/29 13:44:19;;;;;;;21.88;12.85;;;332.80;1638.40;;;;;;4732296;30;20063;-85
2021/01/29 13:46:51;;;;;;;24.23;15.68;;;308.10;1612.80;;;;;;4730253;30;20048;-85
2021/01/29 13:49:25;;;;;;;31.85;21.80;;;307.90;1638.40;;;;;;4730943;30;20074;-84
2021/01/29 13:51:52;;;;;;;23.42;17.20;;;308.00;1638.40;;;;;;4730594;29;20059;-84
2021/01/29 13:54:28;;;;;;;22.60;16.00;;;307.90;1638.40;;;;;;4731120;30;20041;-84
2021/01/29 13:56:56;;;;;;;21.80;13.95;;;307.90;1638.40;;;;;;4730621;30;20402;-85
2021/01/29 13:59:31;;;;;;;25.90;18.33;;;307.80;1638.40;;;;;;4742700;30;20040;-84
2021/01/29 14:02:03;;;;;;;19.88;15.50;;;307.70;1664.00;;;;;;4773189;29;20046;-84
2021/01/29 14:05:01;;;;;;;24.40;15.55;;;307.70;1689.60;;;;;;4807092;29;20038;-83
2021/01/29 14:07:27;;;;;;;21.08;15.23;;;307.70;1689.60;;;;;;4807400;29;20030;-84
2021/01/29 14:09:53;;;;;;;28.15;17.20;;;307.70;1689.60;;;;;;4807374;29;20051;-83
2021/01/29 14:12:35;;;;;;;30.25;17.52;;;307.60;1689.60;;;;;;4807114;29;20478;-85
2021/01/29 14:15:20;;;;;;;28.95;17.67;;;307.60;1715.20;;;;;;4821976;29;20038;-81
2021/01/29 14:18:03;;;;;;;30.92;16.95;;;307.60;1715.20;;;;;;4804990;29;20034;-83
2021/01/29 14:20:41;;;;;;;22.25;14.48;;;307.60;1715.20;;;;;;4823572;29;20023;-83
2021/01/29 14:23:25;;;;;;;32.17;18.33;;;307.50;1715.20;;;;;;4823711;29;20027;-81
2021/01/29 14:26:03;;;;;;;32.17;18.58;;;307.50;1715.20;;;;;;4799161;29;20087;-82
2021/01/29 14:28:48;;;;;;;27.15;16.83;;;307.40;1715.20;;;;;;4807194;29;20030;-81
2021/01/29 14:31:28;;;;;;;27.10;17.08;;;307.30;1740.80;;;;;;4823184;29;20379;-82
2021/01/29 14:34:20;;;;;;;26.48;16.30;;;307.30;1740.80;;;;;;4805854;29;20034;-82
2021/01/29 14:36:59;;;;;;;33.65;20.75;;;307.20;1740.80;;;;;;4806808;29;20099;-83
2021/01/29 14:39:39;;;;;;;30.10;19.45;;;307.20;1766.40;;;;;;4806984;29;20047;-80
2021/01/29 14:42:30;;;;;;;36.85;17.60;;;282.50;1740.80;;;;;;4807147;29;20046;-82
2021/01/29 14:45:15;;;;;;;24.52;16.48;;;282.40;1740.80;;;;;;4806344;29;20388;-83
2021/01/29 14:47:43;;;;;;;23.90;15.05;;;282.30;1740.80;;;;;;4806746;29;20057;-84
2021/01/29 14:51:06;;;;;;;24.38;16.08;;;282.30;1766.40;;;;;;4807358;29;20087;-84
2021/01/29 14:53:59;;;;;;;29.20;16.70;;;282.20;1766.40;;;;;;4770155;30;20039;-84
2021/01/29 14:56:36;;;;;;;24.25;16.02;;;282.20;1766.40;;;;;;4770329;30;20028;-82
2021/01/29 14:59:12;;;;;;;25.92;17.65;;;282.10;1766.40;;;;;;4770305;30;20047;-84
2021/01/29 15:01:44;;;;;;;29.60;18.50;;;282.10;1766.40;;;;;;4785250;30;20093;-81
2021/01/29 15:04:21;;;;;;;29.95;19.60;;;282.10;1766.40;;;;;;4770206;30;20066;-81
2021/01/29 15:06:54;;;;;;;31.08;19.35;;;282.00;1766.40;;;;;;4769799;29;20473;-80
2021/01/29 15:09:24;;;;;;;29.00;19.00;;;282.00;1766.40;;;;;;4785230;29;20036;-83
2021/01/29 15:11:56;;;;;;;28.60;21.92;;;282.00;1766.40;;;;;;4769588;29;20144;-80
2021/01/29 15:14:56;;;;;;;36.25;22.67;;;282.00;1766.40;;;;;;4772943;29;20027;-81
2021/01/29 15:17:37;;;;;;;32.80;20.88;;;281.90;1792.00;;;;;;4803486;29;20051;-82
2021/01/29 15:20:29;;;;;;;33.88;23.88;;;281.80;1792.00;;;;;;4803131;29;20035;-81
2021/01/29 15:23:16;;;;;;;34.78;20.67;;;281.80;1792.00;;;;;;4788895;29;20042;-81
2021/01/29 15:26:07;;;;;;;35.85;23.20;;;281.70;1817.60;;;;;;4821585;29;20044;-79
2021/01/29 15:28:58;;;;;;;45.30;26.13;;;281.70;1817.60;;;;;;4816755;29;20129;-79
2021/01/29 15:31:24;;;;;;;41.22;23.30;;;281.60;1843.20;;;;;;4821955;29;20117;-78
2021/01/29 15:33:56;;;;;;;42.40;25.60;;;281.60;1817.60;;;;;;4822661;29;20105;-78
2021/01/29 15:36:22;;;;;;;41.60;28.27;;;281.60;1868.80;;;;;;4822243;29;20113;-78
2021/01/29 15:38:55;;;;;;;47.50;29.25;;;256.90;1868.80;;;;;;4804745;29;20742;-78
2021/01/29 15:41:39;;;;;;;53.72;30.20;;;256.80;1868.80;;;;;;4792464;29;20030;-80
2021/01/29 15:44:31;;;;;;;45.13;28.27;;;256.80;1868.80;;;;;;4807658;29;20141;-80
2021/01/29 15:47:21;;;;;;;44.30;27.60;;;256.80;1868.80;;;;;;4808939;29;20046;-81
2021/01/29 15:49:47;;;;;;;46.20;29.17;;;256.80;1894.40;;;;;;4755537;30;20051;-79
2021/01/29 15:52:20;;;;;;;41.70;28.60;;;256.70;1894.40;;;;;;4755540;30;20052;-80
2021/01/29 15:54:56;;;;;;;40.40;27.40;;;256.70;1920.00;;;;;;4771912;30;20047;-78
2021/01/29 15:57:36;;;;;;;45.03;31.85;;;256.60;1971.20;;;;;;4756067;30;20065;-80
2021/01/29 16:00:18;;;;;;;45.40;31.38;;;256.50;1971.20;;;;;;4753488;30;20485;-81
2021/01/29 16:03:02;;;;;;;43.83;29.58;;;256.50;1996.80;;;;;;4768795;30;20107;-81
2021/01/29 16:05:46;;;;;;;35.47;27.48;;;256.50;1996.80;;;;;;4756169;30;20044;-79
2021/01/29 16:08:47;;;;;;;44.70;30.30;;;256.40;2022.40;;;;;;4756143;30;20517;-81
2021/01/29 16:11:53;;;;;;;41.17;30.42;;;256.40;2048.00;;;;;;4760380;30;20036;-80
2021/01/29 16:21:16;;;;;;;85.88;61.47;;;256.20;2099.20;;;;;;4773344;30;20070;-80
2021/01/29 16:24:00;;;;;;;179.85;89.28;;;256.10;2124.80;;;;;;4768086;30;20070;-81
2021/01/29 16:27:02;;;;;;;139.50;67.35;;;256.00;2150.40;;;;;;4781520;29;20092;-81
2021/01/29 16:29:32;;;;;;;111.60;61.50;;;256.00;2150.40;;;;;;4820340;29;20035;-80
2021/01/29 16:32:01;;;;;;;113.07;66.88;;;231.30;2176.00;;;;;;4833195;29;20060;-79
2021/01/29 16:35:45;;;;;;;70.22;47.95;;;231.30;2176.00;;;;;;4828003;29;20042;-80
2021/01/29 16:38:31;;;;;;;66.57;48.80;;;231.30;2201.60;;;;;;4743069;30;20045;-77
2021/01/29 16:40:58;;;;;;;72.45;51.03;;;231.20;2201.60;;;;;;4748565;30;20035;-79
2021/01/29 16:43:34;;;;;;;81.35;56.38;;;231.20;2227.20;;;;;;4756250;30;20067;-78
2021/01/29 16:46:23;;;;;;;99.15;76.75;;;231.20;2252.80;;;;;;4754324;30;20028;-79
2021/01/29 16:48:50;;;;;;;211.68;188.18;;;231.20;2252.80;;;;;;4736478;30;20388;-77
2021/01/29 16:51:20;;;;;;;113.18;98.18;;;231.20;2252.80;;;;;;4736979;30;20075;-76
2021/01/29 16:58:15;;;;;;;83.10;62.28;;;231.20;2252.80;;;;;;4751695;30;20138;-81
2021/01/29 17:00:47;;;;;;;85.70;72.45;;;231.20;2252.80;;;;;;4770926;30;20043;-81
2021/01/29 17:04:20;;;;;;;83.35;66.80;;;231.20;2252.80;;;;;;4757022;30;20017;-82
2021/01/29 17:06:56;;;;;;;94.93;69.95;;;231.20;2252.80;;;;;;4764548;30;20044;-78
2021/01/29 17:09:37;;;;;;;103.43;77.63;;;231.20;2252.80;;;;;;4833215;29;20037;-80
2021/01/29 17:16:01;;;;;;;81.03;60.20;;;231.20;2252.80;;;;;;4770518;30;20058;-82
2021/01/29 17:19:00;;;;;;;79.05;59.55;;;231.20;2252.80;;;;;;4788133;30;20057;-80
2021/01/29 17:22:17;;;;;;;81.35;61.65;;;231.20;2252.80;;;;;;4787144;29;20141;-81
2021/01/29 17:25:29;;;;;;;88.93;66.85;;;231.20;2252.80;;;;;;4710710;30;20042;-79
2021/01/29 17:28:01;;;;;;;101.00;79.95;;;231.20;2252.80;;;;;;4620391;31;20047;-76
2021/01/29 17:30:35;;;;;;;116.18;86.80;;;231.20;2252.80;;;;;;4604177;31;20461;-78
2021/01/29 17:33:21;;;;;;;145.38;114.60;;;231.20;2252.80;;;;;;4633322;31;20429;-77
2021/01/29 17:35:57;;;;;;;117.97;94.03;;;231.20;2252.80;;;;;;4624476;31;20048;-80
2021/01/29 17:39:08;;;;;;;136.50;116.00;;;231.20;2252.80;;;;;;4612831;31;20024;-81
2021/01/29 17:41:46;;;;;;;135.70;102.50;;;231.20;2252.80;;;;;;4597113;31;20072;-81
2021/01/29 17:47:40;;;;;;;101.82;77.10;;;231.10;2252.80;;;;;;5014713;24;20062;-80
2021/01/29 17:52:58;;;;;;;106.50;78.10;;;231.10;2252.80;;;;;;4947268;24;20064;-79
2021/01/29 17:55:27;;;;;;;104.68;77.40;;;231.00;2252.80;;;;;;4822913;29;20039;-79
2021/01/29 17:58:25;;;;;;;108.03;83.05;;;231.00;2252.80;;;;;;4828193;29;20050;-80
2021/01/29 18:02:06;;;;;;;223.30;195.07;;;231.00;2252.80;;;;;;4770938;30;20102;-78
2021/01/29 18:05:03;;;;;;;138.57;115.35;;;231.00;2252.80;;;;;;4701476;30;20101;-79
2021/01/29 18:07:37;;;;;;;129.68;105.75;;;230.90;2252.80;;;;;;4674293;30;20042;-79
2021/01/29 18:10:37;;;;;;;203.18;174.40;;;230.90;2252.80;;;;;;4680051;30;20038;-80
2021/01/29 18:13:11;;;;;;;202.20;178.57;;;230.90;2252.80;;;;;;4697787;30;20042;-78
2021/01/29 18:16:06;;;;;;;132.48;115.88;;;230.90;2252.80;;;;;;4687159;30;20368;-78
2021/01/29 18:18:40;;;;;;;92.38;69.80;;;230.90;2252.80;;;;;;4683345;30;20040;-78
2021/01/29 18:21:26;;;;;;;116.97;68.97;;;230.80;2252.80;;;;;;4693257;30;20042;-78
2021/01/29 18:23:53;;;;;;;103.53;74.38;;;230.80;2252.80;;;;;;4686347;30;20052;-78
2021/01/29 18:26:21;;;;;;;101.78;68.28;;;230.80;2252.80;;;;;;4667472;30;20088;-77
2021/01/29 18:28:47;;;;;;;101.40;70.60;;;230.90;2252.80;;;;;;4682319;30;20499;-77
2021/01/29 18:31:15;;;;;;;102.80;69.78;;;230.80;2252.80;;;;;;4682286;30;20077;-77
2021/01/29 18:33:46;;;;;;;105.30;69.85;;;230.90;2252.80;;;;;;4681857;30;20037;-77
2021/01/29 18:36:15;;;;;;;116.38;83.90;;;230.90;2252.80;;;;;;4724140;30;20048;-77
2021/01/29 18:38:42;;;;;;;100.30;70.28;;;230.80;2252.80;;;;;;4801164;29;20050;-77
2021/01/29 18:41:10;;;;;;;82.57;58.72;;;230.80;2252.80;;;;;;4805287;29;20046;-77
2021/01/29 18:43:36;;;;;;;85.25;63.80;;;230.80;2252.80;;;;;;4821661;29;20034;-77
2021/01/29 18:46:03;;;;;;;73.63;56.80;;;230.80;2252.80;;;;;;4814604;29;20047;-76
2021/01/29 18:48:29;;;;;;;69.75;51.50;;;230.90;2252.80;;;;;;4831917;29;20035;-78
2021/01/29 18:50:55;;;;;;;63.45;46.67;;;230.80;2252.80;;;;;;4823719;29;20054;-78
2021/01/29 18:53:22;;;;;;;65.75;47.60;;;230.80;2252.80;;;;;;4805999;29;20055;-77
2021/01/29 18:55:49;;;;;;;70.03;50.33;;;230.80;2252.80;;;;;;4809086;29;20038;-77
2021/01/29 18:58:14;;;;;;;70.25;50.70;;;230.80;2252.80;;;;;;4807999;29;20059;-77
2021/01/29 19:00:42;;;;;;;70.47;53.65;;;230.80;2252.80;;;;;;4811377;29;20039;-78
2021/01/29 19:03:08;;;;;;;62.45;47.05;;;230.90;2252.80;;;;;;4809879;29;20027;-75
2021/01/29 19:05:34;;;;;;;59.92;43.80;;;230.90;2252.80;;;;;;4809107;29;20038;-77
2021/01/29 19:08:02;;;;;;;54.85;42.42;;;230.90;2252.80;;;;;;4823679;29;20031;-76
2021/01/29 19:10:28;;;;;;;56.50;42.17;;;230.80;2252.80;;;;;;4823294;29;20121;-76
2021/01/29 19:17:20;;;;;;;60.72;43.78;;;230.80;2252.80;;;;;;4156208;27;20099;-80
2021/01/29 19:19:55;;;;;;;61.22;44.13;;;230.80;2252.80;;;;;;4812217;29;20067;-77
2021/01/29 19:22:21;;;;;;;60.28;44.03;;;230.80;2252.80;;;;;;4807528;29;20039;-79
2021/01/29 19:24:50;;;;;;;61.00;46.20;;;230.70;2252.80;;;;;;4802803;29;20038;-78
2021/01/29 19:27:17;;;;;;;62.42;45.10;;;230.80;2252.80;;;;;;4826047;29;20023;-79
2021/01/29 19:29:43;;;;;;;65.00;46.85;;;230.70;2252.80;;;;;;4814428;29;20026;-76
2021/01/29 19:32:09;;;;;;;64.53;47.17;;;230.70;2252.80;;;;;;4819979;29;20034;-79
2021/01/29 19:34:35;;;;;;;56.92;45.22;;;230.70;2252.80;;;;;;4796548;29;20441;-77
2021/01/29 19:37:01;;;;;;;61.92;44.70;;;230.70;2252.80;;;;;;4800193;29;20038;-79
2021/01/29 19:39:27;;;;;;;55.30;44.13;;;230.70;2252.80;;;;;;4823364;29;20031;-77
2021/01/29 19:41:54;;;;;;;59.13;47.17;;;230.70;2252.80;;;;;;4810944;29;20034;-77
2021/01/29 19:44:20;;;;;;;50.50;38.47;;;230.80;2252.80;;;;;;4814596;29;20061;-79
2021/01/29 19:46:47;;;;;;;54.50;41.70;;;230.70;2252.80;;;;;;4822567;29;20030;-79
2021/01/29 19:49:13;;;;;;;52.67;42.38;;;230.70;2252.80;;;;;;4822008;29;20038;-77
2021/01/29 19:51:40;;;;;;;60.88;44.60;;;230.70;2252.80;;;;;;4799387;29;20067;-78
2021/01/29 19:54:29;;;;;;;63.58;46.88;;;230.60;2252.80;;;;;;4819264;29;20031;-80
2021/01/29 19:57:01;;;;;;;73.85;55.50;;;230.60;2252.80;;;;;;4808052;29;20043;-78
2021/01/29 19:59:27;;;;;;;58.72;45.47;;;230.60;2252.80;;;;;;4782718;29;20161;-77
2021/01/29 20:01:57;;;;;;;59.65;45.10;;;230.60;2252.80;;;;;;4806079;29;20054;-76
2021/01/29 20:04:23;;;;;;;67.20;47.03;;;230.60;2252.80;;;;;;4816317;29;20030;-77
2021/01/29 20:06:49;;;;;;;63.25;48.90;;;230.60;2252.80;;;;;;4802683;29;20030;-78
2021/01/29 20:09:16;;;;;;;60.72;46.35;;;230.60;2252.80;;;;;;4811564;29;20088;-78
2021/01/29 20:11:41;;;;;;;65.75;49.53;;;230.60;2252.80;;;;;;4812386;29;20106;-78
2021/01/29 20:14:11;;;;;;;66.10;48.72;;;230.60;2252.80;;;;;;4811148;29;20081;-76
2021/01/29 20:16:37;;;;;;;58.67;45.03;;;230.60;2252.80;;;;;;4816193;29;20067;-78
2021/01/29 20:19:04;;;;;;;57.17;45.90;;;230.50;2252.80;;;;;;4797129;29;20037;-77
2021/01/29 20:21:29;;;;;;;55.72;43.10;;;230.50;2252.80;;;;;;4791937;29;20023;-76
2021/01/29 20:23:55;;;;;;;60.00;44.40;;;230.50;2252.80;;;;;;4813154;29;20384;-78
2021/01/29 20:26:21;;;;;;;58.67;42.33;;;230.40;2252.80;;;;;;4817969;29;20038;-79
2021/01/29 20:28:47;;;;;;;57.83;44.33;;;230.40;2252.80;;;;;;4813594;29;20051;-77
2021/01/29 20:31:17;;;;;;;55.15;40.03;;;230.40;2252.80;;;;;;4822653;29;20083;-77
2021/01/29 20:33:44;;;;;;;54.78;38.85;;;230.40;2252.80;;;;;;4806128;29;20041;-78
2021/01/29 20:36:10;;;;;;;68.05;51.95;;;230.40;2252.80;;;;;;4799880;29;20054;-77
2021/01/29 20:38:38;;;;;;;50.33;39.25;;;230.40;2252.80;;;;;;4827757;29;20026;-78
2021/01/29 20:41:04;;;;;;;49.33;37.35;;;230.40;2252.80;;;;;;4809826;29;20019;-76
2021/01/29 20:43:32;;;;;;;42.70;35.67;;;230.40;2252.80;;;;;;4811546;29;20487;-76
2021/01/29 20:45:59;;;;;;;47.30;35.70;;;205.70;2252.80;;;;;;4804487;29;20035;-77
2021/01/29 20:48:25;;;;;;;44.55;34.58;;;230.40;2252.80;;;;;;4791320;29;20083;-77
2021/01/29 20:50:52;;;;;;;45.72;33.97;;;205.70;2252.80;;;;;;4794385;29;20577;-78
2021/01/29 20:53:19;;;;;;;45.53;34.60;;;205.70;2252.80;;;;;;4802767;29;20102;-77
2021/01/29 20:55:44;;;;;;;48.10;36.20;;;205.70;2252.80;;;;;;4819685;29;20033;-77
2021/01/29 20:58:11;;;;;;;42.20;33.55;;;230.40;2252.80;;;;;;4790336;29;20035;-76